Time;durP1;ratioP1;P1;durP2;ratioP2;P2;SDS_P1;SDS_P2;PMS_P1;PMS_P2;Temp;Humidity;BMP_temperature;BMP_pressure;BME280_temperature;BME280_humidity;BME280_pressure;Samples;Min_cycle;Max_cycle;Signal;HPM_P1;HPM_P2
2023/12/13 00:00:24;;;;;;;6.68;4.95;;;;;;;;;;5039162;28;20031;-60
2023/12/13 00:02:50;;;;;;;6.65;5.10;;;;;;;;;;5020171;28;20040;-59
2023/12/13 00:05:15;;;;;;;6.45;4.75;;;;;;;;;;5044272;28;20029;-60
2023/12/13 00:07:40;;;;;;;7.55;5.07;;;;;;;;;;5038762;28;20497;-60
2023/12/13 00:10:06;;;;;;;6.85;5.10;;;;;;;;;;5043136;28;20448;-60
2023/12/13 00:12:31;;;;;;;6.53;5.45;;;;;;;;;;5042444;28;20059;-59
2023/12/13 00:14:56;;;;;;;7.97;5.80;;;;;;;;;;5045210;28;20436;-60
2023/12/13 00:17:22;;;;;;;7.18;5.75;;;;;;;;;;5040950;28;20021;-60
2023/12/13 00:19:47;;;;;;;6.88;5.38;;;;;;;;;;5040180;28;20025;-60
2023/12/13 00:22:12;;;;;;;8.20;6.07;;;;;;;;;;5039208;28;20470;-60
2023/12/13 00:24:38;;;;;;;7.10;5.75;;;;;;;;;;5050576;28;20513;-60
2023/12/13 00:27:03;;;;;;;8.10;5.70;;;;;;;;;;5047973;28;20021;-60
2023/12/13 00:29:29;;;;;;;6.85;5.43;;;;;;;;;;5047573;28;20403;-59
2023/12/13 00:31:54;;;;;;;7.53;5.80;;;;;;;;;;5044623;28;20041;-59
2023/12/13 00:34:19;;;;;;;8.23;5.75;;;;;;;;;;5059842;28;20025;-60
2023/12/13 00:36:45;;;;;;;8.82;6.45;;;;;;;;;;5062825;28;20103;-59
2023/12/13 00:39:10;;;;;;;7.85;5.63;;;;;;;;;;5047556;28;20869;-60
2023/12/13 00:41:35;;;;;;;7.90;5.68;;;;;;;;;;5043377;28;20078;-60
2023/12/13 00:44:03;;;;;;;7.43;5.53;;;;;;;;;;5029126;28;20621;-60
2023/12/13 00:46:28;;;;;;;7.20;5.85;;;;;;;;;;5041702;28;20151;-60
2023/12/13 00:48:54;;;;;;;7.68;5.90;;;;;;;;;;5034324;28;20041;-60
2023/12/13 00:51:19;;;;;;;8.32;6.38;;;;;;;;;;5043149;28;20056;-60
2023/12/13 00:53:45;;;;;;;8.13;6.07;;;;;;;;;;5042719;28;20491;-59
2023/12/13 00:56:10;;;;;;;8.00;5.93;;;;;;;;;;5063888;28;20036;-59
2023/12/13 00:58:35;;;;;;;8.45;6.22;;;;;;;;;;5047575;28;20490;-59
2023/12/13 01:01:01;;;;;;;8.85;6.45;;;;;;;;;;5063544;28;20521;-60
2023/12/13 01:03:26;;;;;;;8.98;6.13;;;;;;;;;;5067779;28;20490;-60
2023/12/13 01:05:51;;;;;;;7.45;5.95;;;;;;;;;;5065334;28;20656;-60
2023/12/13 01:08:17;;;;;;;7.35;6.10;;;;;;;;;;5045836;28;20123;-60
2023/12/13 01:10:42;;;;;;;8.57;6.75;;;;;;;;;;5042160;28;20064;-60
2023/12/13 01:13:08;;;;;;;9.40;6.22;;;;;;;;;;5045618;28;20502;-60
2023/12/13 01:15:33;;;;;;;7.85;5.88;;;;;;;;;;5043287;28;20025;-60
2023/12/13 01:17:58;;;;;;;8.23;6.40;;;;;;;;;;5045607;28;20116;-60
2023/12/13 01:20:24;;;;;;;8.63;6.50;;;;;;;;;;5025332;28;20060;-60
2023/12/13 01:22:49;;;;;;;8.45;6.60;;;;;;;;;;5047528;28;20119;-59
2023/12/13 01:25:14;;;;;;;8.25;6.03;;;;;;;;;;5047374;28;20051;-60
2023/12/13 01:27:40;;;;;;;7.80;6.15;;;;;;;;;;5043534;28;20181;-59
2023/12/13 01:30:08;;;;;;;8.35;6.63;;;;;;;;;;5054058;28;20131;-60
2023/12/13 01:32:33;;;;;;;8.63;6.75;;;;;;;;;;5040038;28;20048;-60
2023/12/13 01:34:58;;;;;;;8.38;6.93;;;;;;;;;;5045767;28;20033;-59
2023/12/13 01:37:24;;;;;;;8.38;6.60;;;;;;;;;;5044235;28;20518;-59
2023/12/13 01:39:49;;;;;;;9.35;6.72;;;;;;;;;;5047554;28;20122;-60
2023/12/13 01:42:14;;;;;;;7.85;6.60;;;;;;;;;;5044045;28;20071;-59
2023/12/13 01:44:40;;;;;;;8.52;6.93;;;;;;;;;;5036522;28;20107;-60
2023/12/13 01:47:05;;;;;;;8.70;6.80;;;;;;;;;;5042617;28;20467;-60
2023/12/13 01:49:30;;;;;;;10.23;7.13;;;;;;;;;;5055065;28;20059;-60
2023/12/13 01:51:56;;;;;;;9.93;7.35;;;;;;;;;;5063497;28;20049;-60
2023/12/13 01:54:21;;;;;;;9.02;6.82;;;;;;;;;;5060786;28;20044;-60
2023/12/13 01:56:46;;;;;;;10.18;7.15;;;;;;;;;;5044588;28;20029;-60
2023/12/13 01:59:12;;;;;;;8.77;7.20;;;;;;;;;;5042124;28;20075;-60
2023/12/13 02:01:38;;;;;;;9.25;7.45;;;;;;;;;;5034391;28;20490;-60
2023/12/13 02:04:04;;;;;;;8.85;7.28;;;;;;;;;;5031337;28;20039;-60
2023/12/13 02:06:29;;;;;;;9.20;7.03;;;;;;;;;;5051307;28;20060;-60
2023/12/13 02:08:54;;;;;;;9.45;7.05;;;;;;;;;;5038923;28;20045;-60
2023/12/13 02:11:20;;;;;;;8.90;7.07;;;;;;;;;;5039591;28;20065;-60
2023/12/13 02:13:45;;;;;;;9.07;7.15;;;;;;;;;;5033729;28;20546;-60
2023/12/13 02:16:10;;;;;;;9.15;7.22;;;;;;;;;;5035213;28;20052;-60
2023/12/13 02:18:36;;;;;;;9.80;7.70;;;;;;;;;;5041867;28;20119;-60
2023/12/13 02:21:02;;;;;;;9.95;7.82;;;;;;;;;;5035419;28;20037;-60
2023/12/13 02:23:27;;;;;;;9.10;7.25;;;;;;;;;;5045963;28;20064;-60
2023/12/13 02:25:59;;;;;;;10.50;7.45;;;;;;;;;;5038881;28;20091;-60
2023/12/13 02:28:24;;;;;;;10.18;7.57;;;;;;;;;;5010193;28;20033;-60
2023/12/13 02:30:50;;;;;;;9.98;7.72;;;;;;;;;;5037762;28;20052;-60
2023/12/13 02:33:16;;;;;;;8.75;7.05;;;;;;;;;;5032822;28;20033;-60
2023/12/13 02:35:41;;;;;;;9.43;7.18;;;;;;;;;;5041716;28;20099;-60
2023/12/13 02:38:06;;;;;;;9.27;7.60;;;;;;;;;;5048396;28;20410;-60
2023/12/13 02:40:32;;;;;;;10.98;7.45;;;;;;;;;;5042479;28;20454;-60
2023/12/13 02:42:57;;;;;;;10.63;7.78;;;;;;;;;;5042649;28;20120;-60
2023/12/13 02:45:23;;;;;;;10.40;8.52;;;;;;;;;;5039515;28;20060;-60
2023/12/13 02:47:52;;;;;;;9.88;8.10;;;;;;;;;;5035428;28;20029;-60
2023/12/13 02:50:17;;;;;;;11.15;8.38;;;;;;;;;;5049378;28;20052;-60
2023/12/13 02:52:43;;;;;;;12.02;8.70;;;;;;;;;;5029299;28;20507;-57
2023/12/13 02:55:11;;;;;;;11.25;8.27;;;;;;;;;;5030108;28;20095;-58
2023/12/13 02:57:36;;;;;;;11.10;8.60;;;;;;;;;;5032722;28;20043;-58
2023/12/13 03:00:03;;;;;;;11.20;8.20;;;;;;;;;;5031347;28;20070;-58
2023/12/13 03:02:28;;;;;;;11.50;8.40;;;;;;;;;;5035071;28;20052;-58
2023/12/13 03:04:53;;;;;;;10.05;8.13;;;;;;;;;;5023823;28;20041;-58
2023/12/13 03:07:19;;;;;;;11.63;8.75;;;;;;;;;;5028323;28;20033;-58
2023/12/13 03:09:44;;;;;;;11.13;8.93;;;;;;;;;;5018540;28;20030;-58
2023/12/13 03:12:10;;;;;;;12.23;9.27;;;;;;;;;;5022742;28;20585;-58
2023/12/13 03:14:35;;;;;;;10.55;8.85;;;;;;;;;;5025226;28;20048;-58
2023/12/13 03:17:01;;;;;;;11.77;8.68;;;;;;;;;;5026423;28;20096;-58
2023/12/13 03:19:26;;;;;;;11.98;9.25;;;;;;;;;;5020937;28;20037;-58
2023/12/13 03:21:51;;;;;;;10.70;8.82;;;;;;;;;;5016331;28;20033;-58
2023/12/13 03:24:17;;;;;;;10.98;9.05;;;;;;;;;;5029745;28;20038;-59
2023/12/13 03:26:42;;;;;;;10.48;9.15;;;;;;;;;;5031027;28;20044;-58
2023/12/13 03:29:07;;;;;;;11.50;8.98;;;;;;;;;;5029691;28;20407;-58
2023/12/13 03:31:32;;;;;;;12.63;9.38;;;;;;;;;;5032850;28;20045;-58
2023/12/13 03:34:00;;;;;;;10.35;8.40;;;;;;;;;;5026771;28;20091;-58
2023/12/13 03:36:25;;;;;;;11.25;8.40;;;;;;;;;;5027484;28;20049;-58
2023/12/13 03:38:51;;;;;;;10.80;8.55;;;;;;;;;;5031021;28;20092;-58
2023/12/13 03:41:16;;;;;;;11.75;8.77;;;;;;;;;;5026462;28;20076;-58
2023/12/13 03:43:41;;;;;;;11.95;9.07;;;;;;;;;;5025913;28;20041;-58
2023/12/13 03:46:07;;;;;;;11.93;9.35;;;;;;;;;;5028146;28;20065;-58
2023/12/13 03:48:32;;;;;;;11.73;9.10;;;;;;;;;;5036245;28;20113;-59
2023/12/13 03:50:58;;;;;;;12.90;9.70;;;;;;;;;;5034595;28;20053;-58
2023/12/13 03:53:23;;;;;;;12.30;9.85;;;;;;;;;;5029518;28;20068;-58
2023/12/13 03:55:48;;;;;;;11.23;9.02;;;;;;;;;;5030535;28;20041;-58
2023/12/13 03:58:14;;;;;;;12.25;9.40;;;;;;;;;;5037862;28;20048;-58
2023/12/13 04:00:39;;;;;;;12.10;10.23;;;;;;;;;;5037025;28;20083;-59
2023/12/13 04:03:04;;;;;;;14.30;10.38;;;;;;;;;;5027961;28;20722;-59
2023/12/13 04:05:30;;;;;;;12.70;9.88;;;;;;;;;;5041228;28;20056;-58
2023/12/13 04:07:55;;;;;;;12.75;9.90;;;;;;;;;;5041263;28;20195;-58
2023/12/13 04:10:20;;;;;;;13.30;9.50;;;;;;;;;;5039878;28;20553;-58
2023/12/13 04:12:46;;;;;;;12.48;9.60;;;;;;;;;;5038295;28;20041;-60
2023/12/13 04:15:11;;;;;;;12.60;9.63;;;;;;;;;;5040136;28;20066;-59
2023/12/13 04:17:37;;;;;;;12.02;9.25;;;;;;;;;;5041656;28;20080;-59
2023/12/13 04:20:02;;;;;;;11.93;9.57;;;;;;;;;;5041174;28;20578;-59
2023/12/13 04:22:27;;;;;;;12.50;9.60;;;;;;;;;;5038781;28;20042;-59
2023/12/13 04:24:53;;;;;;;10.95;9.52;;;;;;;;;;5039089;28;20167;-59
2023/12/13 04:27:18;;;;;;;12.52;9.82;;;;;;;;;;5039476;28;20454;-59
2023/12/13 04:29:43;;;;;;;14.13;9.98;;;;;;;;;;5038690;28;20152;-60
2023/12/13 04:32:09;;;;;;;12.00;9.23;;;;;;;;;;5040016;28;20109;-60
2023/12/13 04:34:34;;;;;;;12.18;9.63;;;;;;;;;;5039852;28;20032;-60
2023/12/13 04:36:59;;;;;;;12.15;9.52;;;;;;;;;;5020972;28;20037;-59
2023/12/13 04:39:25;;;;;;;11.32;8.75;;;;;;;;;;5039784;28;21695;-60
2023/12/13 04:41:50;;;;;;;11.35;9.15;;;;;;;;;;5040000;28;20472;-59
2023/12/13 04:44:15;;;;;;;12.00;9.35;;;;;;;;;;5038042;28;20033;-59
2023/12/13 04:46:41;;;;;;;11.65;9.68;;;;;;;;;;5039865;28;20037;-59
2023/12/13 04:49:06;;;;;;;10.90;8.75;;;;;;;;;;5041931;28;20094;-58
2023/12/13 04:51:31;;;;;;;10.88;8.77;;;;;;;;;;5040139;28;20051;-58
2023/12/13 04:53:57;;;;;;;12.50;9.35;;;;;;;;;;5037781;28;20111;-59
2023/12/13 04:56:23;;;;;;;12.20;9.63;;;;;;;;;;5042427;28;20472;-59
2023/12/13 04:58:48;;;;;;;10.95;9.07;;;;;;;;;;5039326;28;20033;-59
2023/12/13 05:01:13;;;;;;;11.70;9.52;;;;;;;;;;5039840;28;20032;-59
2023/12/13 05:03:39;;;;;;;12.38;9.98;;;;;;;;;;5035879;28;20494;-59
2023/12/13 05:06:04;;;;;;;12.68;9.70;;;;;;;;;;5027377;28;20513;-59
2023/12/13 05:08:30;;;;;;;12.57;9.75;;;;;;;;;;5013990;28;20566;-58
2023/12/13 05:10:56;;;;;;;12.30;9.88;;;;;;;;;;5036688;28;20052;-59
2023/12/13 05:13:21;;;;;;;12.52;9.45;;;;;;;;;;5038376;28;20033;-58
2023/12/13 05:15:46;;;;;;;12.40;9.30;;;;;;;;;;5037376;28;20277;-60
2023/12/13 05:18:12;;;;;;;11.57;9.50;;;;;;;;;;5036887;28;20577;-58
2023/12/13 05:20:37;;;;;;;12.15;9.70;;;;;;;;;;5033400;28;20053;-58
2023/12/13 05:23:02;;;;;;;11.95;9.27;;;;;;;;;;5035626;28;20089;-59
2023/12/13 05:25:28;;;;;;;13.05;10.15;;;;;;;;;;5039285;28;20120;-58
2023/12/13 05:27:53;;;;;;;31.65;22.38;;;;;;;;;;5019579;28;20040;-58
2023/12/13 05:30:18;;;;;;;16.58;12.38;;;;;;;;;;5036940;28;20579;-58
2023/12/13 05:32:44;;;;;;;14.38;10.98;;;;;;;;;;5039998;28;20041;-57
2023/12/13 05:35:09;;;;;;;15.80;10.93;;;;;;;;;;5039178;28;20024;-58
2023/12/13 05:37:34;;;;;;;15.20;10.95;;;;;;;;;;5042191;28;20064;-58
2023/12/13 05:40:00;;;;;;;12.52;10.32;;;;;;;;;;5037631;28;20045;-59
2023/12/13 05:42:25;;;;;;;13.23;10.15;;;;;;;;;;5016598;28;20490;-58
2023/12/13 05:44:50;;;;;;;12.25;10.18;;;;;;;;;;5037376;28;20060;-57
2023/12/13 05:47:16;;;;;;;13.43;10.55;;;;;;;;;;5039016;28;20048;-59
2023/12/13 05:49:41;;;;;;;12.32;10.18;;;;;;;;;;5019233;28;20040;-60
2023/12/13 05:52:06;;;;;;;12.63;10.98;;;;;;;;;;5038334;28;20481;-58
2023/12/13 05:54:32;;;;;;;13.50;10.27;;;;;;;;;;5030804;28;20109;-58
2023/12/13 05:56:58;;;;;;;12.98;9.98;;;;;;;;;;5041267;28;20522;-59
2023/12/13 05:59:23;;;;;;;12.65;9.90;;;;;;;;;;5037993;28;20041;-59
2023/12/13 06:01:48;;;;;;;14.00;10.30;;;;;;;;;;5038751;28;20457;-59
2023/12/13 06:04:14;;;;;;;14.45;10.35;;;;;;;;;;5013914;28;20056;-58
2023/12/13 06:06:46;;;;;;;11.90;9.90;;;;;;;;;;5037258;28;20062;-59
2023/12/13 06:09:11;;;;;;;12.85;10.27;;;;;;;;;;5036877;28;20306;-58
2023/12/13 06:11:37;;;;;;;13.27;10.18;;;;;;;;;;5037055;28;20518;-59
2023/12/13 06:14:02;;;;;;;13.75;10.10;;;;;;;;;;5035847;28;20506;-59
2023/12/13 06:16:27;;;;;;;12.93;10.57;;;;;;;;;;5021056;28;20044;-59
2023/12/13 06:18:53;;;;;;;13.75;10.60;;;;;;;;;;5038154;28;20068;-59
2023/12/13 06:21:18;;;;;;;13.00;10.13;;;;;;;;;;5035785;28;20110;-59
2023/12/13 06:23:43;;;;;;;13.85;9.85;;;;;;;;;;5034851;28;20418;-59
2023/12/13 06:26:09;;;;;;;13.18;10.38;;;;;;;;;;5037597;28;20106;-59
2023/12/13 06:28:34;;;;;;;11.93;9.90;;;;;;;;;;5039600;28;20029;-59
2023/12/13 06:30:59;;;;;;;13.13;10.60;;;;;;;;;;5024679;28;20517;-59
2023/12/13 06:33:25;;;;;;;12.73;10.07;;;;;;;;;;5041391;28;20037;-59
2023/12/13 06:35:50;;;;;;;12.68;10.55;;;;;;;;;;5036301;28;20041;-60
2023/12/13 06:38:15;;;;;;;14.35;10.45;;;;;;;;;;5014535;28;20037;-59
2023/12/13 06:40:40;;;;;;;13.30;10.48;;;;;;;;;;5038827;28;20055;-59
2023/12/13 06:43:07;;;;;;;30.10;14.60;;;;;;;;;;5040233;28;20506;-59
2023/12/13 06:45:32;;;;;;;17.67;12.23;;;;;;;;;;5037146;28;20041;-59
2023/12/13 06:47:58;;;;;;;13.75;10.63;;;;;;;;;;5034037;28;20040;-59
2023/12/13 06:50:24;;;;;;;16.35;11.52;;;;;;;;;;5026503;28;20029;-58
2023/12/13 06:52:51;;;;;;;14.90;10.63;;;;;;;;;;5036712;28;20083;-58
2023/12/13 06:55:17;;;;;;;14.63;11.18;;;;;;;;;;5042818;28;20045;-59
2023/12/13 06:57:42;;;;;;;13.52;10.38;;;;;;;;;;5036351;28;20033;-58
2023/12/13 07:00:08;;;;;;;13.32;10.68;;;;;;;;;;5022991;28;20540;-57
2023/12/13 07:02:33;;;;;;;15.48;11.32;;;;;;;;;;5037431;28;20037;-57
2023/12/13 07:04:59;;;;;;;13.75;10.75;;;;;;;;;;5014006;28;20044;-58
2023/12/13 07:07:25;;;;;;;13.52;10.43;;;;;;;;;;5038841;28;20106;-58
2023/12/13 07:09:50;;;;;;;14.68;10.75;;;;;;;;;;5042762;28;20043;-59
2023/12/13 07:12:16;;;;;;;14.10;11.23;;;;;;;;;;5040644;28;20048;-58
2023/12/13 07:14:41;;;;;;;13.93;10.77;;;;;;;;;;5037911;28;20494;-58
2023/12/13 07:17:06;;;;;;;14.02;9.88;;;;;;;;;;5038969;28;20513;-58
2023/12/13 07:19:32;;;;;;;14.38;10.68;;;;;;;;;;5039988;28;20029;-56
2023/12/13 07:21:58;;;;;;;15.30;11.20;;;;;;;;;;5020413;28;20045;-58
2023/12/13 07:24:23;;;;;;;12.88;9.95;;;;;;;;;;5018348;28;20037;-58
2023/12/13 07:26:49;;;;;;;14.05;11.10;;;;;;;;;;5037024;28;20040;-57
2023/12/13 07:29:14;;;;;;;16.75;12.38;;;;;;;;;;5037976;28;20033;-59
2023/12/13 07:31:39;;;;;;;13.15;10.38;;;;;;;;;;5036778;28;20853;-56
2023/12/13 07:34:05;;;;;;;14.07;10.63;;;;;;;;;;5041676;28;21515;-56
2023/12/13 07:36:30;;;;;;;15.20;10.77;;;;;;;;;;5035368;28;20477;-56
2023/12/13 07:38:56;;;;;;;11.68;9.25;;;;;;;;;;5020761;28;20127;-56
2023/12/13 07:41:21;;;;;;;14.40;10.70;;;;;;;;;;5037420;28;20512;-56
2023/12/13 07:43:46;;;;;;;14.25;10.40;;;;;;;;;;5041976;28;20045;-57
2023/12/13 07:46:13;;;;;;;12.90;9.90;;;;;;;;;;5040124;28;20037;-57
2023/12/13 07:48:39;;;;;;;13.07;10.82;;;;;;;;;;5030459;28;20055;-57
2023/12/13 07:51:04;;;;;;;13.52;9.73;;;;;;;;;;5038525;28;20045;-58
2023/12/13 07:53:30;;;;;;;13.70;10.30;;;;;;;;;;5042924;28;20107;-57
2023/12/13 07:55:55;;;;;;;12.60;10.30;;;;;;;;;;5009037;28;20469;-57
2023/12/13 07:58:20;;;;;;;13.05;9.75;;;;;;;;;;5017369;28;20114;-57
2023/12/13 08:00:45;;;;;;;12.88;9.73;;;;;;;;;;5041421;28;20063;-58
2023/12/13 08:03:11;;;;;;;13.55;10.25;;;;;;;;;;5045837;28;20033;-57
2023/12/13 08:05:36;;;;;;;13.15;10.10;;;;;;;;;;5038645;28;20119;-57
2023/12/13 08:08:02;;;;;;;13.52;10.38;;;;;;;;;;5039348;28;20069;-58
2023/12/13 08:10:27;;;;;;;13.57;10.30;;;;;;;;;;5042703;28;20040;-57
2023/12/13 08:12:52;;;;;;;13.52;9.65;;;;;;;;;;5035732;28;20033;-57
2023/12/13 08:15:18;;;;;;;14.43;9.93;;;;;;;;;;5046904;28;20060;-57
2023/12/13 08:17:43;;;;;;;12.60;9.43;;;;;;;;;;5039619;28;20140;-57
2023/12/13 08:20:09;;;;;;;13.52;9.85;;;;;;;;;;5032943;28;21089;-57
2023/12/13 08:22:34;;;;;;;12.15;9.80;;;;;;;;;;5040246;28;20124;-57
2023/12/13 08:24:59;;;;;;;13.43;10.13;;;;;;;;;;5036591;28;20037;-56
2023/12/13 08:27:25;;;;;;;12.82;9.80;;;;;;;;;;5041214;28;20588;-57
2023/12/13 08:29:50;;;;;;;12.15;9.73;;;;;;;;;;5040761;28;20529;-58
2023/12/13 08:32:16;;;;;;;14.48;10.60;;;;;;;;;;5027018;28;20496;-56
2023/12/13 08:34:41;;;;;;;12.40;9.45;;;;;;;;;;5048747;28;20139;-56
2023/12/13 08:37:07;;;;;;;15.10;9.48;;;;;;;;;;5060226;28;20041;-56
2023/12/13 08:39:32;;;;;;;13.73;10.00;;;;;;;;;;5040298;28;20029;-56
2023/12/13 08:41:57;;;;;;;12.95;9.93;;;;;;;;;;5041574;28;20072;-56
2023/12/13 08:44:24;;;;;;;12.35;9.73;;;;;;;;;;5055665;28;20036;-56
2023/12/13 08:46:49;;;;;;;11.57;9.25;;;;;;;;;;5043052;28;20037;-57
2023/12/13 08:49:14;;;;;;;12.68;9.68;;;;;;;;;;5039456;28;20052;-56
2023/12/13 08:51:40;;;;;;;12.73;9.65;;;;;;;;;;5041696;28;20064;-57
2023/12/13 08:54:05;;;;;;;13.25;9.75;;;;;;;;;;5045032;28;20067;-56
2023/12/13 08:56:31;;;;;;;13.35;9.45;;;;;;;;;;5053510;28;20041;-57
2023/12/13 08:58:56;;;;;;;13.43;9.50;;;;;;;;;;5051660;28;20068;-57
2023/12/13 09:01:21;;;;;;;13.18;9.32;;;;;;;;;;5028180;28;20119;-57
2023/12/13 09:03:47;;;;;;;14.02;10.05;;;;;;;;;;5040248;28;20069;-57
2023/12/13 09:06:13;;;;;;;14.45;9.93;;;;;;;;;;5050204;28;20516;-57
2023/12/13 09:08:38;;;;;;;11.63;9.35;;;;;;;;;;5048604;28;20033;-57
2023/12/13 09:11:03;;;;;;;12.50;9.93;;;;;;;;;;5046899;28;20451;-57
2023/12/13 09:13:29;;;;;;;11.95;9.38;;;;;;;;;;5048984;28;20502;-57
2023/12/13 09:15:55;;;;;;;12.05;9.77;;;;;;;;;;5038690;28;20029;-57
2023/12/13 09:18:20;;;;;;;12.18;9.32;;;;;;;;;;5045207;28;20070;-56
2023/12/13 09:20:45;;;;;;;13.00;10.00;;;;;;;;;;5041236;28;20170;-57
2023/12/13 09:23:19;;;;;;;13.15;9.50;;;;;;;;;;5039058;28;20411;-57
2023/12/13 09:25:44;;;;;;;12.70;9.80;;;;;;;;;;5041360;28;20045;-56
2023/12/13 09:28:10;;;;;;;12.75;9.80;;;;;;;;;;5055170;28;20031;-58
2023/12/13 09:30:37;;;;;;;13.27;9.02;;;;;;;;;;5037734;28;20024;-57
2023/12/13 09:33:02;;;;;;;11.63;9.35;;;;;;;;;;5053124;28;20027;-57
2023/12/13 09:35:27;;;;;;;12.70;9.27;;;;;;;;;;5032793;28;20017;-57
2023/12/13 09:37:53;;;;;;;12.68;9.68;;;;;;;;;;5040843;28;20448;-57
2023/12/13 09:40:19;;;;;;;12.65;9.60;;;;;;;;;;5040665;28;20094;-57
2023/12/13 09:42:45;;;;;;;13.52;9.70;;;;;;;;;;5045453;28;20013;-57
2023/12/13 09:45:11;;;;;;;11.25;9.00;;;;;;;;;;5048012;28;20013;-57
2023/12/13 09:47:36;;;;;;;13.35;9.52;;;;;;;;;;5039468;28;20035;-57
2023/12/13 09:50:01;;;;;;;12.77;9.63;;;;;;;;;;5058914;28;20052;-58
2023/12/13 09:52:27;;;;;;;13.02;9.27;;;;;;;;;;5023759;28;20446;-58
2023/12/13 09:54:52;;;;;;;13.68;9.10;;;;;;;;;;5042130;28;20379;-58
2023/12/13 09:57:17;;;;;;;13.68;9.73;;;;;;;;;;5044172;28;20017;-57
2023/12/13 09:59:45;;;;;;;13.80;9.75;;;;;;;;;;5037985;28;20123;-58
2023/12/13 10:02:14;;;;;;;12.48;9.55;;;;;;;;;;5042539;28;20013;-57
2023/12/13 10:04:40;;;;;;;12.38;9.32;;;;;;;;;;5036216;28;20028;-57
2023/12/13 10:07:06;;;;;;;12.38;8.90;;;;;;;;;;5039228;28;20021;-57
2023/12/13 10:09:32;;;;;;;12.68;9.43;;;;;;;;;;5043740;28;20494;-58
2023/12/13 10:11:58;;;;;;;13.27;8.93;;;;;;;;;;5040168;28;20191;-57
2023/12/13 10:14:23;;;;;;;11.07;8.52;;;;;;;;;;5023913;28;20060;-57
2023/12/13 10:16:49;;;;;;;12.27;8.75;;;;;;;;;;5040677;28;20037;-57
2023/12/13 10:19:16;;;;;;;12.13;8.70;;;;;;;;;;5048213;28;20036;-57
2023/12/13 10:21:41;;;;;;;12.10;8.30;;;;;;;;;;5035973;28;20082;-56
2023/12/13 10:24:06;;;;;;;12.32;8.73;;;;;;;;;;5031530;28;20053;-57
2023/12/13 10:26:35;;;;;;;12.55;8.43;;;;;;;;;;5041414;28;20038;-55
2023/12/13 10:29:01;;;;;;;10.63;8.45;;;;;;;;;;5040728;28;20140;-56
2023/12/13 10:31:26;;;;;;;11.52;8.90;;;;;;;;;;5043176;28;20512;-55
2023/12/13 10:33:51;;;;;;;11.40;8.73;;;;;;;;;;5040351;28;20589;-56
2023/12/13 10:36:17;;;;;;;12.80;8.57;;;;;;;;;;5041223;28;20036;-56
2023/12/13 10:38:44;;;;;;;11.63;8.40;;;;;;;;;;5022342;28;20063;-56
2023/12/13 10:41:09;;;;;;;12.88;8.50;;;;;;;;;;5025512;28;20044;-55
2023/12/13 10:43:35;;;;;;;11.00;8.43;;;;;;;;;;5042361;28;20041;-56
2023/12/13 10:46:00;;;;;;;11.43;8.63;;;;;;;;;;5039100;28;20033;-55
2023/12/13 10:48:35;;;;;;;11.90;8.38;;;;;;;;;;5045106;28;20057;-56
2023/12/13 10:51:02;;;;;;;11.63;8.70;;;;;;;;;;5041139;28;20048;-57
2023/12/13 10:53:28;;;;;;;11.90;9.00;;;;;;;;;;5022201;28;20049;-56
2023/12/13 10:55:53;;;;;;;10.73;8.20;;;;;;;;;;5041247;28;20112;-57
2023/12/13 10:58:19;;;;;;;12.10;8.75;;;;;;;;;;5042483;28;20127;-56
2023/12/13 11:00:44;;;;;;;11.20;8.15;;;;;;;;;;5045110;28;20037;-57
2023/12/13 11:03:11;;;;;;;11.30;8.20;;;;;;;;;;5042147;28;20037;-56
2023/12/13 11:05:37;;;;;;;13.30;8.30;;;;;;;;;;5042432;28;20574;-56
2023/12/13 11:08:12;;;;;;;11.27;8.52;;;;;;;;;;5034098;28;20063;-56
2023/12/13 11:10:37;;;;;;;12.05;8.73;;;;;;;;;;5041827;28;20059;-56
2023/12/13 11:13:03;;;;;;;11.00;8.15;;;;;;;;;;5041470;28;20053;-56
2023/12/13 11:15:28;;;;;;;12.48;8.40;;;;;;;;;;5013769;28;20472;-56
2023/12/13 11:17:55;;;;;;;11.80;7.93;;;;;;;;;;5034405;28;20583;-56
2023/12/13 11:20:21;;;;;;;12.00;8.02;;;;;;;;;;5041164;28;20070;-57
2023/12/13 11:22:47;;;;;;;10.55;8.23;;;;;;;;;;5042706;28;20424;-56
2023/12/13 11:25:13;;;;;;;10.13;7.90;;;;;;;;;;5021959;28;20040;-57
2023/12/13 11:27:50;;;;;;;10.40;7.85;;;;;;;;;;5042612;28;20466;-57
2023/12/13 11:30:16;;;;;;;14.60;10.20;;;;;;;;;;5037134;28;20574;-57
2023/12/13 11:32:44;;;;;;;11.27;8.32;;;;;;;;;;5036311;28;20080;-56
2023/12/13 11:35:10;;;;;;;10.98;8.30;;;;;;;;;;5036418;28;20048;-57
2023/12/13 11:37:36;;;;;;;10.27;7.65;;;;;;;;;;5039132;28;20422;-57
2023/12/13 11:40:01;;;;;;;11.30;7.93;;;;;;;;;;5035966;28;20371;-57
2023/12/13 11:42:26;;;;;;;11.55;8.10;;;;;;;;;;5036517;28;20041;-57
2023/12/13 11:44:52;;;;;;;11.15;8.27;;;;;;;;;;5033575;28;20268;-57
2023/12/13 11:47:17;;;;;;;9.52;7.65;;;;;;;;;;5011342;28;20060;-57
2023/12/13 11:49:43;;;;;;;10.15;7.72;;;;;;;;;;5034035;28;21944;-58
2023/12/13 11:52:10;;;;;;;11.00;7.78;;;;;;;;;;5036072;28;20136;-58
2023/12/13 11:54:36;;;;;;;10.50;7.70;;;;;;;;;;5034713;28;20490;-58
2023/12/13 11:57:02;;;;;;;12.07;7.90;;;;;;;;;;5035489;28;20029;-58
2023/12/13 11:59:28;;;;;;;9.50;7.20;;;;;;;;;;5034458;28;20044;-58
2023/12/13 12:01:53;;;;;;;9.80;7.78;;;;;;;;;;5034175;28;20423;-58
2023/12/13 12:04:19;;;;;;;10.30;7.60;;;;;;;;;;5034220;28;20667;-57
2023/12/13 12:06:45;;;;;;;10.82;7.65;;;;;;;;;;5036783;28;20117;-58
2023/12/13 12:09:10;;;;;;;11.02;7.70;;;;;;;;;;5034431;28;20659;-57
2023/12/13 12:11:35;;;;;;;10.52;7.30;;;;;;;;;;5033629;28;20172;-58
2023/12/13 12:14:01;;;;;;;11.18;7.97;;;;;;;;;;5033418;28;20220;-57
2023/12/13 12:16:26;;;;;;;10.90;7.70;;;;;;;;;;5036308;28;21577;-57
2023/12/13 12:18:52;;;;;;;10.35;6.95;;;;;;;;;;5035071;28;20071;-57
2023/12/13 12:21:18;;;;;;;10.85;7.60;;;;;;;;;;5033957;28;20590;-57
2023/12/13 12:23:43;;;;;;;9.98;7.07;;;;;;;;;;5034077;28;20056;-57
2023/12/13 12:26:09;;;;;;;10.18;6.85;;;;;;;;;;5037115;28;20037;-57
2023/12/13 12:28:35;;;;;;;9.15;6.90;;;;;;;;;;5041814;28;20033;-56
2023/12/13 12:31:00;;;;;;;9.85;7.07;;;;;;;;;;5034048;28;20181;-57
2023/12/13 12:33:25;;;;;;;10.73;7.00;;;;;;;;;;5038379;28;20034;-57
2023/12/13 12:35:51;;;;;;;11.00;7.57;;;;;;;;;;5040070;28;20041;-57
2023/12/13 12:38:16;;;;;;;8.93;6.70;;;;;;;;;;5065431;28;20028;-57
2023/12/13 12:40:42;;;;;;;8.77;6.63;;;;;;;;;;5048541;28;20094;-58
2023/12/13 12:43:08;;;;;;;9.40;6.82;;;;;;;;;;5048535;28;20037;-57
2023/12/13 12:45:33;;;;;;;10.48;6.80;;;;;;;;;;5044449;28;20106;-57
2023/12/13 12:47:59;;;;;;;10.00;7.00;;;;;;;;;;5028325;28;20122;-58
2023/12/13 12:50:24;;;;;;;7.53;5.82;;;;;;;;;;5045960;28;20041;-56
2023/12/13 12:52:49;;;;;;;9.73;6.65;;;;;;;;;;5046831;28;20045;-56
2023/12/13 12:55:15;;;;;;;9.82;6.50;;;;;;;;;;5051631;28;20116;-57
2023/12/13 12:57:40;;;;;;;9.52;7.00;;;;;;;;;;5064477;28;20044;-57
2023/12/13 13:00:06;;;;;;;8.40;7.05;;;;;;;;;;5055089;28;20048;-57
2023/12/13 13:02:31;;;;;;;8.70;6.18;;;;;;;;;;5059112;28;20601;-57
2023/12/13 13:04:56;;;;;;;7.70;6.28;;;;;;;;;;5045057;28;20087;-57
2023/12/13 13:07:22;;;;;;;8.25;6.15;;;;;;;;;;5023484;28;20578;-57
2023/12/13 13:09:47;;;;;;;9.95;6.63;;;;;;;;;;5025040;28;20668;-56
2023/12/13 13:12:12;;;;;;;9.15;6.40;;;;;;;;;;5044935;28;20047;-56
2023/12/13 13:14:39;;;;;;;8.38;6.43;;;;;;;;;;5035778;28;20029;-56
2023/12/13 13:17:04;;;;;;;8.02;5.95;;;;;;;;;;5025525;28;20124;-56
2023/12/13 13:19:29;;;;;;;8.63;6.07;;;;;;;;;;5045481;28;20125;-57
2023/12/13 13:21:55;;;;;;;11.50;6.65;;;;;;;;;;5043336;28;20371;-56
2023/12/13 13:24:21;;;;;;;8.85;6.18;;;;;;;;;;5033036;28;20044;-56
2023/12/13 13:26:47;;;;;;;8.70;6.40;;;;;;;;;;5058407;28;20036;-57
2023/12/13 13:29:12;;;;;;;7.32;5.97;;;;;;;;;;5048623;28;20468;-56
2023/12/13 13:31:38;;;;;;;7.82;6.13;;;;;;;;;;5041575;28;20123;-56
2023/12/13 13:34:03;;;;;;;7.38;5.85;;;;;;;;;;5048677;28;20029;-56
2023/12/13 13:36:28;;;;;;;6.97;5.78;;;;;;;;;;5046333;28;20093;-56
2023/12/13 13:38:54;;;;;;;8.98;6.25;;;;;;;;;;5038712;28;20529;-56
2023/12/13 13:41:19;;;;;;;7.43;5.35;;;;;;;;;;5046683;28;20037;-57
2023/12/13 13:43:44;;;;;;;7.75;5.85;;;;;;;;;;5027997;28;20129;-56
2023/12/13 13:46:10;;;;;;;7.20;5.70;;;;;;;;;;5037072;28;20065;-55
2023/12/13 13:48:35;;;;;;;8.50;6.05;;;;;;;;;;5036144;28;20068;-55
2023/12/13 13:51:01;;;;;;;7.50;5.80;;;;;;;;;;5033943;28;20790;-57
2023/12/13 13:53:26;;;;;;;7.10;5.20;;;;;;;;;;5045709;28;20033;-56
2023/12/13 13:55:52;;;;;;;7.97;5.65;;;;;;;;;;5036729;28;20091;-55
2023/12/13 13:58:18;;;;;;;8.77;5.57;;;;;;;;;;5048576;28;20576;-56
2023/12/13 14:00:43;;;;;;;7.72;5.82;;;;;;;;;;5055070;28;20025;-58
2023/12/13 14:03:09;;;;;;;8.05;5.60;;;;;;;;;;5042707;28;20037;-57
2023/12/13 14:05:35;;;;;;;7.68;5.60;;;;;;;;;;5035951;28;20037;-58
2023/12/13 14:08:04;;;;;;;6.95;5.43;;;;;;;;;;5061194;28;20435;-58
2023/12/13 14:10:29;;;;;;;7.80;5.45;;;;;;;;;;5047839;28;20056;-59
2023/12/13 14:12:54;;;;;;;7.55;5.85;;;;;;;;;;5054533;28;20048;-57
2023/12/13 14:15:20;;;;;;;7.03;5.35;;;;;;;;;;5034854;28;20037;-57
2023/12/13 14:17:45;;;;;;;7.55;5.70;;;;;;;;;;5039396;28;20037;-57
2023/12/13 14:20:11;;;;;;;7.13;5.45;;;;;;;;;;5041323;28;20041;-58